sensor_id;sensor_type;location;lat;lon;timestamp;P1;durP1;ratioP1;P2;durP2;ratioP2
10882;SDS011;5494;51.796;10.952;2024-01-11T00:02:07;26.70;;;13.20;;
10882;SDS011;5494;51.796;10.952;2024-01-11T00:04:36;25.27;;;12.18;;
10882;SDS011;5494;51.796;10.952;2024-01-11T00:07:04;25.77;;;12.70;;
10882;SDS011;5494;51.796;10.952;2024-01-11T00:09:32;25.63;;;12.18;;
10882;SDS011;5494;51.796;10.952;2024-01-11T00:12:00;26.30;;;12.35;;
10882;SDS011;5494;51.796;10.952;2024-01-11T00:14:28;34.78;;;14.18;;
10882;SDS011;5494;51.796;10.952;2024-01-11T00:16:56;30.00;;;13.95;;
10882;SDS011;5494;51.796;10.952;2024-01-11T00:19:25;35.78;;;14.95;;
10882;SDS011;5494;51.796;10.952;2024-01-11T00:21:53;33.72;;;13.88;;
10882;SDS011;5494;51.796;10.952;2024-01-11T00:24:21;33.00;;;14.13;;
10882;SDS011;5494;51.796;10.952;2024-01-11T00:26:49;25.88;;;13.70;;
10882;SDS011;5494;51.796;10.952;2024-01-11T00:29:17;23.80;;;13.13;;
10882;SDS011;5494;51.796;10.952;2024-01-11T00:31:45;23.92;;;12.95;;
10882;SDS011;5494;51.796;10.952;2024-01-11T00:34:13;25.13;;;12.05;;
10882;SDS011;5494;51.796;10.952;2024-01-11T00:36:45;28.10;;;12.38;;
10882;SDS011;5494;51.796;10.952;2024-01-11T00:39:13;27.02;;;12.55;;
10882;SDS011;5494;51.796;10.952;2024-01-11T00:41:41;25.13;;;12.20;;
10882;SDS011;5494;51.796;10.952;2024-01-11T00:44:09;27.40;;;13.55;;
10882;SDS011;5494;51.796;10.952;2024-01-11T00:46:39;32.45;;;13.23;;
10882;SDS011;5494;51.796;10.952;2024-01-11T00:49:07;25.17;;;12.38;;
10882;SDS011;5494;51.796;10.952;2024-01-11T00:51:35;24.85;;;13.00;;
10882;SDS011;5494;51.796;10.952;2024-01-11T00:54:05;23.73;;;12.75;;
10882;SDS011;5494;51.796;10.952;2024-01-11T00:56:33;27.17;;;13.02;;
10882;SDS011;5494;51.796;10.952;2024-01-11T00:59:01;28.40;;;14.23;;
10882;SDS011;5494;51.796;10.952;2024-01-11T01:01:31;28.27;;;14.27;;
10882;SDS011;5494;51.796;10.952;2024-01-11T01:03:59;26.85;;;14.00;;
10882;SDS011;5494;51.796;10.952;2024-01-11T01:06:27;27.52;;;12.82;;
10882;SDS011;5494;51.796;10.952;2024-01-11T01:08:55;24.60;;;13.15;;
10882;SDS011;5494;51.796;10.952;2024-01-11T01:11:25;28.45;;;13.20;;
10882;SDS011;5494;51.796;10.952;2024-01-11T01:13:53;27.52;;;12.85;;
10882;SDS011;5494;51.796;10.952;2024-01-11T01:16:21;29.17;;;15.18;;
10882;SDS011;5494;51.796;10.952;2024-01-11T01:18:49;29.85;;;14.32;;
10882;SDS011;5494;51.796;10.952;2024-01-11T01:21:17;26.05;;;14.57;;
10882;SDS011;5494;51.796;10.952;2024-01-11T01:23:45;31.92;;;15.13;;
10882;SDS011;5494;51.796;10.952;2024-01-11T01:26:13;26.23;;;13.60;;
10882;SDS011;5494;51.796;10.952;2024-01-11T01:28:42;29.05;;;12.82;;
10882;SDS011;5494;51.796;10.952;2024-01-11T01:31:11;26.50;;;12.27;;
10882;SDS011;5494;51.796;10.952;2024-01-11T01:33:39;25.10;;;12.27;;
10882;SDS011;5494;51.796;10.952;2024-01-11T01:36:08;30.70;;;14.23;;
10882;SDS011;5494;51.796;10.952;2024-01-11T01:38:37;21.95;;;11.70;;
10882;SDS011;5494;51.796;10.952;2024-01-11T01:41:05;22.25;;;11.82;;
10882;SDS011;5494;51.796;10.952;2024-01-11T01:43:34;24.92;;;11.50;;
10882;SDS011;5494;51.796;10.952;2024-01-11T01:46:03;22.60;;;10.98;;
10882;SDS011;5494;51.796;10.952;2024-01-11T01:48:33;26.13;;;12.00;;
10882;SDS011;5494;51.796;10.952;2024-01-11T01:51:02;25.00;;;14.32;;
10882;SDS011;5494;51.796;10.952;2024-01-11T01:53:32;32.50;;;15.23;;
10882;SDS011;5494;51.796;10.952;2024-01-11T01:56:00;31.88;;;14.68;;
10882;SDS011;5494;51.796;10.952;2024-01-11T01:58:29;35.60;;;16.15;;
10882;SDS011;5494;51.796;10.952;2024-01-11T02:00:57;29.05;;;14.02;;
10882;SDS011;5494;51.796;10.952;2024-01-11T02:03:27;30.23;;;13.27;;
10882;SDS011;5494;51.796;10.952;2024-01-11T02:05:57;26.50;;;13.18;;
10882;SDS011;5494;51.796;10.952;2024-01-11T02:08:25;23.27;;;11.95;;
10882;SDS011;5494;51.796;10.952;2024-01-11T02:10:55;30.55;;;14.45;;
10882;SDS011;5494;51.796;10.952;2024-01-11T02:13:26;27.00;;;13.73;;
10882;SDS011;5494;51.796;10.952;2024-01-11T02:15:55;28.38;;;13.80;;
10882;SDS011;5494;51.796;10.952;2024-01-11T02:18:23;29.08;;;14.80;;
10882;SDS011;5494;51.796;10.952;2024-01-11T02:20:53;36.00;;;15.23;;
10882;SDS011;5494;51.796;10.952;2024-01-11T02:23:24;29.67;;;15.63;;
10882;SDS011;5494;51.796;10.952;2024-01-11T02:25:56;25.38;;;13.90;;
10882;SDS011;5494;51.796;10.952;2024-01-11T02:28:24;27.73;;;11.75;;
10882;SDS011;5494;51.796;10.952;2024-01-11T02:30:51;19.13;;;10.60;;
10882;SDS011;5494;51.796;10.952;2024-01-11T02:33:19;21.30;;;9.88;;
10882;SDS011;5494;51.796;10.952;2024-01-11T02:35:48;19.55;;;10.38;;
10882;SDS011;5494;51.796;10.952;2024-01-11T02:38:17;24.88;;;10.23;;
10882;SDS011;5494;51.796;10.952;2024-01-11T02:40:45;20.70;;;9.68;;
10882;SDS011;5494;51.796;10.952;2024-01-11T02:43:16;21.88;;;10.75;;
10882;SDS011;5494;51.796;10.952;2024-01-11T02:45:44;23.30;;;10.80;;
10882;SDS011;5494;51.796;10.952;2024-01-11T02:48:12;19.60;;;11.23;;
10882;SDS011;5494;51.796;10.952;2024-01-11T02:50:40;25.02;;;11.35;;
10882;SDS011;5494;51.796;10.952;2024-01-11T02:53:09;21.88;;;10.27;;
10882;SDS011;5494;51.796;10.952;2024-01-11T02:55:37;18.67;;;9.43;;
10882;SDS011;5494;51.796;10.952;2024-01-11T02:58:05;16.77;;;9.07;;
10882;SDS011;5494;51.796;10.952;2024-01-11T03:00:34;22.52;;;10.35;;
10882;SDS011;5494;51.796;10.952;2024-01-11T03:03:02;21.80;;;11.82;;
10882;SDS011;5494;51.796;10.952;2024-01-11T03:05:31;24.00;;;12.65;;
10882;SDS011;5494;51.796;10.952;2024-01-11T03:07:59;24.38;;;11.32;;
10882;SDS011;5494;51.796;10.952;2024-01-11T03:10:27;22.75;;;11.55;;
10882;SDS011;5494;51.796;10.952;2024-01-11T03:12:55;21.00;;;12.05;;
10882;SDS011;5494;51.796;10.952;2024-01-11T03:15:25;21.77;;;11.10;;
10882;SDS011;5494;51.796;10.952;2024-01-11T03:17:54;25.65;;;11.95;;
10882;SDS011;5494;51.796;10.952;2024-01-11T03:20:22;31.55;;;12.95;;
10882;SDS011;5494;51.796;10.952;2024-01-11T03:22:51;27.70;;;13.00;;
10882;SDS011;5494;51.796;10.952;2024-01-11T03:25:19;25.33;;;13.02;;
10882;SDS011;5494;51.796;10.952;2024-01-11T03:27:47;26.90;;;12.65;;
10882;SDS011;5494;51.796;10.952;2024-01-11T03:30:15;32.10;;;14.82;;
10882;SDS011;5494;51.796;10.952;2024-01-11T03:32:45;30.75;;;13.65;;
10882;SDS011;5494;51.796;10.952;2024-01-11T03:35:14;27.52;;;13.93;;
10882;SDS011;5494;51.796;10.952;2024-01-11T03:37:43;32.08;;;15.10;;
10882;SDS011;5494;51.796;10.952;2024-01-11T03:40:11;24.27;;;13.98;;
10882;SDS011;5494;51.796;10.952;2024-01-11T03:42:41;27.52;;;13.93;;
10882;SDS011;5494;51.796;10.952;2024-01-11T03:45:09;29.23;;;13.15;;
10882;SDS011;5494;51.796;10.952;2024-01-11T03:47:37;24.92;;;13.80;;
10882;SDS011;5494;51.796;10.952;2024-01-11T03:50:06;26.77;;;12.88;;
10882;SDS011;5494;51.796;10.952;2024-01-11T03:52:36;25.90;;;12.93;;
10882;SDS011;5494;51.796;10.952;2024-01-11T03:55:04;24.55;;;12.70;;
10882;SDS011;5494;51.796;10.952;2024-01-11T03:57:33;22.27;;;11.68;;
10882;SDS011;5494;51.796;10.952;2024-01-11T04:00:02;24.25;;;11.30;;
10882;SDS011;5494;51.796;10.952;2024-01-11T04:02:36;17.15;;;8.77;;
10882;SDS011;5494;51.796;10.952;2024-01-11T04:05:05;15.60;;;7.70;;
10882;SDS011;5494;51.796;10.952;2024-01-11T04:07:33;20.58;;;9.27;;
10882;SDS011;5494;51.796;10.952;2024-01-11T04:10:03;17.33;;;11.13;;
10882;SDS011;5494;51.796;10.952;2024-01-11T04:12:32;22.45;;;11.38;;
10882;SDS011;5494;51.796;10.952;2024-01-11T04:15:00;25.92;;;11.00;;
10882;SDS011;5494;51.796;10.952;2024-01-11T04:17:29;19.65;;;9.57;;
10882;SDS011;5494;51.796;10.952;2024-01-11T04:19:57;20.92;;;10.23;;
10882;SDS011;5494;51.796;10.952;2024-01-11T04:22:25;19.95;;;10.00;;
10882;SDS011;5494;51.796;10.952;2024-01-11T04:24:57;18.60;;;8.55;;
10882;SDS011;5494;51.796;10.952;2024-01-11T04:27:25;17.88;;;9.07;;
10882;SDS011;5494;51.796;10.952;2024-01-11T04:29:53;17.88;;;9.27;;
10882;SDS011;5494;51.796;10.952;2024-01-11T04:32:21;19.95;;;9.13;;
10882;SDS011;5494;51.796;10.952;2024-01-11T04:34:49;21.77;;;9.10;;
10882;SDS011;5494;51.796;10.952;2024-01-11T04:37:17;16.17;;;8.88;;
10882;SDS011;5494;51.796;10.952;2024-01-11T04:39:46;17.40;;;8.85;;
10882;SDS011;5494;51.796;10.952;2024-01-11T04:42:15;20.23;;;9.55;;
10882;SDS011;5494;51.796;10.952;2024-01-11T04:44:43;18.77;;;8.63;;
10882;SDS011;5494;51.796;10.952;2024-01-11T04:47:11;15.90;;;8.38;;
10882;SDS011;5494;51.796;10.952;2024-01-11T04:49:39;19.58;;;9.73;;
10882;SDS011;5494;51.796;10.952;2024-01-11T04:52:07;19.60;;;10.10;;
10882;SDS011;5494;51.796;10.952;2024-01-11T04:54:35;20.40;;;9.23;;
10882;SDS011;5494;51.796;10.952;2024-01-11T04:57:04;18.17;;;7.88;;
10882;SDS011;5494;51.796;10.952;2024-01-11T04:59:34;17.35;;;7.63;;
10882;SDS011;5494;51.796;10.952;2024-01-11T05:02:02;20.60;;;9.63;;
10882;SDS011;5494;51.796;10.952;2024-01-11T05:04:30;18.85;;;10.40;;
10882;SDS011;5494;51.796;10.952;2024-01-11T05:06:58;19.17;;;8.30;;
10882;SDS011;5494;51.796;10.952;2024-01-11T05:09:26;15.90;;;7.53;;
10882;SDS011;5494;51.796;10.952;2024-01-11T05:11:54;13.32;;;7.53;;
10882;SDS011;5494;51.796;10.952;2024-01-11T05:14:22;14.02;;;7.50;;
10882;SDS011;5494;51.796;10.952;2024-01-11T05:16:51;20.90;;;9.13;;
10882;SDS011;5494;51.796;10.952;2024-01-11T05:19:19;67.43;;;28.20;;
10882;SDS011;5494;51.796;10.952;2024-01-11T05:21:47;28.92;;;13.45;;
10882;SDS011;5494;51.796;10.952;2024-01-11T05:24:15;16.58;;;8.60;;
10882;SDS011;5494;51.796;10.952;2024-01-11T05:26:43;18.73;;;8.82;;
10882;SDS011;5494;51.796;10.952;2024-01-11T05:29:11;14.73;;;7.75;;
10882;SDS011;5494;51.796;10.952;2024-01-11T05:31:39;15.32;;;9.10;;
10882;SDS011;5494;51.796;10.952;2024-01-11T05:34:09;15.85;;;7.82;;
10882;SDS011;5494;51.796;10.952;2024-01-11T05:36:39;17.70;;;9.38;;
10882;SDS011;5494;51.796;10.952;2024-01-11T05:39:07;14.45;;;8.02;;
10882;SDS011;5494;51.796;10.952;2024-01-11T05:41:35;16.55;;;7.78;;
10882;SDS011;5494;51.796;10.952;2024-01-11T05:44:04;15.88;;;8.38;;
10882;SDS011;5494;51.796;10.952;2024-01-11T05:46:32;17.13;;;9.10;;
10882;SDS011;5494;51.796;10.952;2024-01-11T05:49:00;18.77;;;8.73;;
10882;SDS011;5494;51.796;10.952;2024-01-11T05:51:30;15.70;;;8.93;;
10882;SDS011;5494;51.796;10.952;2024-01-11T05:53:58;16.73;;;7.90;;
10882;SDS011;5494;51.796;10.952;2024-01-11T05:56:26;12.45;;;5.93;;
10882;SDS011;5494;51.796;10.952;2024-01-11T05:58:54;17.65;;;8.38;;
10882;SDS011;5494;51.796;10.952;2024-01-11T06:01:22;15.68;;;8.48;;
10882;SDS011;5494;51.796;10.952;2024-01-11T06:03:50;18.45;;;9.35;;
10882;SDS011;5494;51.796;10.952;2024-01-11T06:06:18;15.20;;;9.65;;
10882;SDS011;5494;51.796;10.952;2024-01-11T06:08:48;22.20;;;10.43;;
10882;SDS011;5494;51.796;10.952;2024-01-11T06:11:16;30.05;;;17.27;;
10882;SDS011;5494;51.796;10.952;2024-01-11T06:13:44;31.00;;;15.88;;
10882;SDS011;5494;51.796;10.952;2024-01-11T06:16:13;36.85;;;20.17;;
10882;SDS011;5494;51.796;10.952;2024-01-11T06:18:41;38.42;;;19.48;;
10882;SDS011;5494;51.796;10.952;2024-01-11T06:21:09;30.88;;;17.00;;
10882;SDS011;5494;51.796;10.952;2024-01-11T06:23:37;24.08;;;12.18;;
10882;SDS011;5494;51.796;10.952;2024-01-11T06:26:07;18.15;;;9.73;;
10882;SDS011;5494;51.796;10.952;2024-01-11T06:28:35;21.40;;;10.60;;
10882;SDS011;5494;51.796;10.952;2024-01-11T06:31:03;12.43;;;6.22;;
10882;SDS011;5494;51.796;10.952;2024-01-11T06:33:31;9.15;;;4.88;;
10882;SDS011;5494;51.796;10.952;2024-01-11T06:36:04;8.38;;;4.35;;
10882;SDS011;5494;51.796;10.952;2024-01-11T06:38:34;8.93;;;5.05;;
10882;SDS011;5494;51.796;10.952;2024-01-11T06:41:02;8.60;;;4.95;;
10882;SDS011;5494;51.796;10.952;2024-01-11T06:43:32;8.13;;;4.95;;
10882;SDS011;5494;51.796;10.952;2024-01-11T06:46:02;7.32;;;3.83;;
10882;SDS011;5494;51.796;10.952;2024-01-11T06:48:31;8.32;;;4.32;;
10882;SDS011;5494;51.796;10.952;2024-01-11T06:50:59;5.97;;;2.92;;
10882;SDS011;5494;51.796;10.952;2024-01-11T06:53:28;7.63;;;4.40;;
10882;SDS011;5494;51.796;10.952;2024-01-11T06:55:56;8.02;;;4.95;;
10882;SDS011;5494;51.796;10.952;2024-01-11T06:58:27;7.13;;;3.38;;
10882;SDS011;5494;51.796;10.952;2024-01-11T07:00:56;5.97;;;3.25;;
10882;SDS011;5494;51.796;10.952;2024-01-11T07:03:24;8.70;;;4.30;;
10882;SDS011;5494;51.796;10.952;2024-01-11T07:05:53;6.13;;;3.95;;
10882;SDS011;5494;51.796;10.952;2024-01-11T07:08:22;19.80;;;8.38;;
10882;SDS011;5494;51.796;10.952;2024-01-11T07:10:50;17.63;;;8.65;;
10882;SDS011;5494;51.796;10.952;2024-01-11T07:13:18;24.77;;;12.30;;
10882;SDS011;5494;51.796;10.952;2024-01-11T07:15:46;23.48;;;12.82;;
10882;SDS011;5494;51.796;10.952;2024-01-11T07:18:16;23.77;;;13.05;;
10882;SDS011;5494;51.796;10.952;2024-01-11T07:20:44;23.13;;;12.50;;
10882;SDS011;5494;51.796;10.952;2024-01-11T07:23:12;19.67;;;10.18;;
10882;SDS011;5494;51.796;10.952;2024-01-11T07:25:40;19.88;;;9.60;;
10882;SDS011;5494;51.796;10.952;2024-01-11T07:28:08;17.58;;;10.05;;
10882;SDS011;5494;51.796;10.952;2024-01-11T07:30:36;17.48;;;8.20;;
10882;SDS011;5494;51.796;10.952;2024-01-11T07:33:06;10.23;;;6.15;;
10882;SDS011;5494;51.796;10.952;2024-01-11T07:35:37;11.55;;;6.57;;
10882;SDS011;5494;51.796;10.952;2024-01-11T07:38:05;12.10;;;6.82;;
10882;SDS011;5494;51.796;10.952;2024-01-11T07:40:33;12.25;;;6.90;;
10882;SDS011;5494;51.796;10.952;2024-01-11T07:43:03;10.48;;;6.28;;
10882;SDS011;5494;51.796;10.952;2024-01-11T07:45:31;10.20;;;5.57;;
10882;SDS011;5494;51.796;10.952;2024-01-11T07:47:59;13.02;;;6.57;;
10882;SDS011;5494;51.796;10.952;2024-01-11T07:50:30;12.38;;;7.18;;
10882;SDS011;5494;51.796;10.952;2024-01-11T07:53:00;11.30;;;6.50;;
10882;SDS011;5494;51.796;10.952;2024-01-11T07:55:28;9.38;;;5.45;;
10882;SDS011;5494;51.796;10.952;2024-01-11T07:57:56;14.82;;;6.57;;
10882;SDS011;5494;51.796;10.952;2024-01-11T08:00:24;13.63;;;6.60;;
10882;SDS011;5494;51.796;10.952;2024-01-11T08:02:52;10.85;;;5.90;;
10882;SDS011;5494;51.796;10.952;2024-01-11T08:05:21;13.93;;;6.93;;
10882;SDS011;5494;51.796;10.952;2024-01-11T08:07:50;12.05;;;6.97;;
10882;SDS011;5494;51.796;10.952;2024-01-11T08:10:19;14.40;;;7.25;;
10882;SDS011;5494;51.796;10.952;2024-01-11T08:12:47;17.27;;;7.95;;
10882;SDS011;5494;51.796;10.952;2024-01-11T08:15:15;16.48;;;8.75;;
10882;SDS011;5494;51.796;10.952;2024-01-11T08:17:44;21.00;;;9.48;;
10882;SDS011;5494;51.796;10.952;2024-01-11T08:20:14;18.50;;;10.00;;
10882;SDS011;5494;51.796;10.952;2024-01-11T08:22:42;19.13;;;10.43;;
10882;SDS011;5494;51.796;10.952;2024-01-11T08:25:12;20.92;;;11.52;;
10882;SDS011;5494;51.796;10.952;2024-01-11T08:27:42;23.13;;;14.48;;
10882;SDS011;5494;51.796;10.952;2024-01-11T08:30:10;29.00;;;14.10;;
10882;SDS011;5494;51.796;10.952;2024-01-11T08:32:39;27.55;;;14.77;;
10882;SDS011;5494;51.796;10.952;2024-01-11T08:35:08;19.58;;;12.23;;
10882;SDS011;5494;51.796;10.952;2024-01-11T08:37:38;19.92;;;12.63;;
10882;SDS011;5494;51.796;10.952;2024-01-11T08:40:06;19.58;;;11.18;;
10882;SDS011;5494;51.796;10.952;2024-01-11T08:42:41;17.73;;;10.80;;
10882;SDS011;5494;51.796;10.952;2024-01-11T08:45:10;22.10;;;12.05;;
10882;SDS011;5494;51.796;10.952;2024-01-11T08:47:44;18.02;;;10.68;;
10882;SDS011;5494;51.796;10.952;2024-01-11T08:50:13;14.85;;;9.50;;
10882;SDS011;5494;51.796;10.952;2024-01-11T08:52:43;14.07;;;9.27;;
10882;SDS011;5494;51.796;10.952;2024-01-11T08:55:11;14.98;;;9.85;;
10882;SDS011;5494;51.796;10.952;2024-01-11T08:57:40;14.98;;;9.32;;
10882;SDS011;5494;51.796;10.952;2024-01-11T09:00:09;15.25;;;10.27;;
10882;SDS011;5494;51.796;10.952;2024-01-11T09:02:43;15.05;;;10.43;;
10882;SDS011;5494;51.796;10.952;2024-01-11T09:05:13;16.13;;;11.30;;
10882;SDS011;5494;51.796;10.952;2024-01-11T09:07:41;22.17;;;12.63;;
10882;SDS011;5494;51.796;10.952;2024-01-11T09:10:10;19.40;;;12.60;;
10882;SDS011;5494;51.796;10.952;2024-01-11T09:12:38;20.17;;;12.50;;
10882;SDS011;5494;51.796;10.952;2024-01-11T09:15:08;21.00;;;12.53;;
10882;SDS011;5494;51.796;10.952;2024-01-11T09:17:37;21.33;;;13.20;;
10882;SDS011;5494;51.796;10.952;2024-01-11T09:20:06;21.63;;;13.43;;
10882;SDS011;5494;51.796;10.952;2024-01-11T09:22:35;18.97;;;12.80;;
10882;SDS011;5494;51.796;10.952;2024-01-11T09:25:04;19.87;;;13.27;;
10882;SDS011;5494;51.796;10.952;2024-01-11T09:27:33;21.93;;;14.13;;
10882;SDS011;5494;51.796;10.952;2024-01-11T09:30:02;23.50;;;13.27;;
10882;SDS011;5494;51.796;10.952;2024-01-11T09:32:33;19.17;;;11.97;;
10882;SDS011;5494;51.796;10.952;2024-01-11T09:35:02;21.57;;;13.60;;
10882;SDS011;5494;51.796;10.952;2024-01-11T09:37:31;23.13;;;13.23;;
10882;SDS011;5494;51.796;10.952;2024-01-11T09:40:00;21.93;;;13.63;;
10882;SDS011;5494;51.796;10.952;2024-01-11T09:42:28;19.57;;;12.50;;
10882;SDS011;5494;51.796;10.952;2024-01-11T09:44:56;21.77;;;13.27;;
10882;SDS011;5494;51.796;10.952;2024-01-11T09:47:25;22.30;;;14.23;;
10882;SDS011;5494;51.796;10.952;2024-01-11T09:49:56;21.63;;;13.90;;
10882;SDS011;5494;51.796;10.952;2024-01-11T09:52:26;20.53;;;14.37;;
10882;SDS011;5494;51.796;10.952;2024-01-11T09:55:01;26.07;;;14.93;;
10882;SDS011;5494;51.796;10.952;2024-01-11T09:57:29;27.23;;;14.93;;
10882;SDS011;5494;51.796;10.952;2024-01-11T10:00:00;26.20;;;15.87;;
10882;SDS011;5494;51.796;10.952;2024-01-11T10:02:34;26.90;;;16.43;;
10882;SDS011;5494;51.796;10.952;2024-01-11T10:05:03;22.97;;;14.77;;
10882;SDS011;5494;51.796;10.952;2024-01-11T10:07:34;23.70;;;14.90;;
10882;SDS011;5494;51.796;10.952;2024-01-11T10:10:05;25.70;;;16.90;;
10882;SDS011;5494;51.796;10.952;2024-01-11T10:12:34;31.40;;;19.47;;
10882;SDS011;5494;51.796;10.952;2024-01-11T10:15:06;32.37;;;19.07;;
10882;SDS011;5494;51.796;10.952;2024-01-11T10:17:40;24.70;;;15.23;;
10882;SDS011;5494;51.796;10.952;2024-01-11T10:20:12;27.67;;;15.40;;
10882;SDS011;5494;51.796;10.952;2024-01-11T10:22:41;21.57;;;12.97;;
10882;SDS011;5494;51.796;10.952;2024-01-11T10:25:10;23.93;;;13.03;;
10882;SDS011;5494;51.796;10.952;2024-01-11T10:27:41;22.17;;;14.10;;
10882;SDS011;5494;51.796;10.952;2024-01-11T10:30:11;20.13;;;14.13;;
10882;SDS011;5494;51.796;10.952;2024-01-11T10:32:43;19.17;;;14.00;;
10882;SDS011;5494;51.796;10.952;2024-01-11T10:35:13;18.77;;;12.93;;
10882;SDS011;5494;51.796;10.952;2024-01-11T10:37:44;19.93;;;12.60;;
10882;SDS011;5494;51.796;10.952;2024-01-11T10:40:12;20.23;;;13.23;;
10882;SDS011;5494;51.796;10.952;2024-01-11T10:42:43;19.93;;;13.47;;
10882;SDS011;5494;51.796;10.952;2024-01-11T10:45:17;22.87;;;13.70;;
10882;SDS011;5494;51.796;10.952;2024-01-11T10:47:50;20.57;;;14.07;;
10882;SDS011;5494;51.796;10.952;2024-01-11T10:50:25;22.13;;;14.40;;
10882;SDS011;5494;51.796;10.952;2024-01-11T10:52:58;25.10;;;15.23;;
10882;SDS011;5494;51.796;10.952;2024-01-11T10:55:32;22.47;;;15.03;;
10882;SDS011;5494;51.796;10.952;2024-01-11T10:58:02;23.10;;;15.80;;
10882;SDS011;5494;51.796;10.952;2024-01-11T11:00:31;27.10;;;18.00;;
10882;SDS011;5494;51.796;10.952;2024-01-11T11:03:02;31.67;;;19.37;;
10882;SDS011;5494;51.796;10.952;2024-01-11T11:05:35;29.33;;;16.80;;
10882;SDS011;5494;51.796;10.952;2024-01-11T11:08:05;32.97;;;18.47;;
10882;SDS011;5494;51.796;10.952;2024-01-11T11:10:37;36.83;;;19.97;;
10882;SDS011;5494;51.796;10.952;2024-01-11T11:13:08;31.83;;;19.17;;
10882;SDS011;5494;51.796;10.952;2024-01-11T11:15:39;32.87;;;18.37;;
10882;SDS011;5494;51.796;10.952;2024-01-11T11:18:12;34.97;;;20.47;;
10882;SDS011;5494;51.796;10.952;2024-01-11T11:20:42;32.27;;;19.07;;
10882;SDS011;5494;51.796;10.952;2024-01-11T11:23:11;35.80;;;20.23;;
10882;SDS011;5494;51.796;10.952;2024-01-11T11:25:46;35.80;;;21.27;;
10882;SDS011;5494;51.796;10.952;2024-01-11T11:28:16;37.97;;;22.90;;
10882;SDS011;5494;51.796;10.952;2024-01-11T11:30:47;38.92;;;21.75;;
10882;SDS011;5494;51.796;10.952;2024-01-11T11:33:18;39.90;;;22.63;;
10882;SDS011;5494;51.796;10.952;2024-01-11T11:35:52;38.92;;;23.15;;
10882;SDS011;5494;51.796;10.952;2024-01-11T11:38:22;41.30;;;23.23;;
10882;SDS011;5494;51.796;10.952;2024-01-11T11:40:53;39.28;;;22.55;;
10882;SDS011;5494;51.796;10.952;2024-01-11T11:43:24;41.50;;;22.08;;
10882;SDS011;5494;51.796;10.952;2024-01-11T11:45:55;35.53;;;20.67;;
10882;SDS011;5494;51.796;10.952;2024-01-11T11:48:47;34.53;;;20.92;;
10882;SDS011;5494;51.796;10.952;2024-01-11T11:51:20;38.22;;;21.33;;
10882;SDS011;5494;51.796;10.952;2024-01-11T11:53:53;37.55;;;21.50;;
10882;SDS011;5494;51.796;10.952;2024-01-11T11:56:21;38.08;;;19.90;;
10882;SDS011;5494;51.796;10.952;2024-01-11T11:58:51;41.00;;;20.98;;
10882;SDS011;5494;51.796;10.952;2024-01-11T12:01:21;40.67;;;20.58;;
10882;SDS011;5494;51.796;10.952;2024-01-11T12:03:50;34.70;;;19.92;;
10882;SDS011;5494;51.796;10.952;2024-01-11T12:06:21;37.83;;;20.48;;
10882;SDS011;5494;51.796;10.952;2024-01-11T12:08:52;36.80;;;20.85;;
10882;SDS011;5494;51.796;10.952;2024-01-11T12:11:24;37.25;;;20.75;;
10882;SDS011;5494;51.796;10.952;2024-01-11T12:13:53;34.53;;;19.75;;
10882;SDS011;5494;51.796;10.952;2024-01-11T12:16:24;28.95;;;17.90;;
10882;SDS011;5494;51.796;10.952;2024-01-11T12:18:52;37.47;;;21.23;;
10882;SDS011;5494;51.796;10.952;2024-01-11T12:21:21;34.63;;;19.98;;
10882;SDS011;5494;51.796;10.952;2024-01-11T12:23:49;32.60;;;20.02;;
10882;SDS011;5494;51.796;10.952;2024-01-11T12:26:17;28.63;;;17.10;;
10882;SDS011;5494;51.796;10.952;2024-01-11T12:28:49;31.45;;;18.50;;
10882;SDS011;5494;51.796;10.952;2024-01-11T12:31:18;30.23;;;18.52;;
10882;SDS011;5494;51.796;10.952;2024-01-11T12:33:49;31.88;;;18.15;;
10882;SDS011;5494;51.796;10.952;2024-01-11T12:36:18;32.60;;;16.98;;
10882;SDS011;5494;51.796;10.952;2024-01-11T12:38:48;25.92;;;15.93;;
10882;SDS011;5494;51.796;10.952;2024-01-11T12:41:19;28.25;;;14.60;;
10882;SDS011;5494;51.796;10.952;2024-01-11T12:43:50;27.90;;;15.52;;
10882;SDS011;5494;51.796;10.952;2024-01-11T12:46:19;26.77;;;14.95;;
10882;SDS011;5494;51.796;10.952;2024-01-11T12:48:47;24.30;;;13.10;;
10882;SDS011;5494;51.796;10.952;2024-01-11T12:51:17;23.52;;;13.55;;
10882;SDS011;5494;51.796;10.952;2024-01-11T12:53:50;22.67;;;13.13;;
10882;SDS011;5494;51.796;10.952;2024-01-11T12:56:21;19.95;;;13.07;;
10882;SDS011;5494;51.796;10.952;2024-01-11T12:59:04;25.55;;;13.80;;
10882;SDS011;5494;51.796;10.952;2024-01-11T13:01:33;17.38;;;10.82;;
10882;SDS011;5494;51.796;10.952;2024-01-11T13:04:02;18.20;;;11.25;;
10882;SDS011;5494;51.796;10.952;2024-01-11T13:06:30;17.52;;;9.48;;
10882;SDS011;5494;51.796;10.952;2024-01-11T13:09:02;18.13;;;10.15;;
10882;SDS011;5494;51.796;10.952;2024-01-11T13:11:30;15.35;;;8.68;;
10882;SDS011;5494;51.796;10.952;2024-01-11T13:13:59;15.98;;;8.18;;
10882;SDS011;5494;51.796;10.952;2024-01-11T13:16:31;11.35;;;7.05;;
10882;SDS011;5494;51.796;10.952;2024-01-11T13:18:59;15.75;;;7.07;;
10882;SDS011;5494;51.796;10.952;2024-01-11T13:21:28;12.02;;;7.53;;
10882;SDS011;5494;51.796;10.952;2024-01-11T13:23:56;12.95;;;7.63;;
10882;SDS011;5494;51.796;10.952;2024-01-11T13:26:25;14.98;;;8.82;;
10882;SDS011;5494;51.796;10.952;2024-01-11T13:28:54;12.50;;;6.90;;
10882;SDS011;5494;51.796;10.952;2024-01-11T13:31:22;13.27;;;6.15;;
10882;SDS011;5494;51.796;10.952;2024-01-11T13:33:50;13.15;;;7.93;;
10882;SDS011;5494;51.796;10.952;2024-01-11T13:36:19;12.60;;;7.40;;
10882;SDS011;5494;51.796;10.952;2024-01-11T13:38:46;12.55;;;6.53;;
10882;SDS011;5494;51.796;10.952;2024-01-11T13:41:15;9.15;;;6.03;;
10882;SDS011;5494;51.796;10.952;2024-01-11T13:43:45;9.30;;;5.93;;
10882;SDS011;5494;51.796;10.952;2024-01-11T13:46:14;9.73;;;6.22;;
10882;SDS011;5494;51.796;10.952;2024-01-11T13:48:46;9.77;;;5.45;;
10882;SDS011;5494;51.796;10.952;2024-01-11T13:51:14;10.80;;;5.68;;
10882;SDS011;5494;51.796;10.952;2024-01-11T13:53:42;9.10;;;5.03;;
10882;SDS011;5494;51.796;10.952;2024-01-11T13:56:11;9.52;;;5.40;;
10882;SDS011;5494;51.796;10.952;2024-01-11T13:58:39;9.00;;;5.07;;
10882;SDS011;5494;51.796;10.952;2024-01-11T14:01:08;7.10;;;4.63;;
10882;SDS011;5494;51.796;10.952;2024-01-11T14:03:37;7.55;;;4.68;;
10882;SDS011;5494;51.796;10.952;2024-01-11T14:06:06;8.70;;;5.18;;
10882;SDS011;5494;51.796;10.952;2024-01-11T14:08:34;5.78;;;4.00;;
10882;SDS011;5494;51.796;10.952;2024-01-11T14:11:02;6.63;;;3.65;;
10882;SDS011;5494;51.796;10.952;2024-01-11T14:13:31;8.55;;;4.40;;
10882;SDS011;5494;51.796;10.952;2024-01-11T14:15:59;8.00;;;4.30;;
10882;SDS011;5494;51.796;10.952;2024-01-11T14:18:29;5.10;;;3.35;;
10882;SDS011;5494;51.796;10.952;2024-01-11T14:20:57;6.63;;;3.97;;
10882;SDS011;5494;51.796;10.952;2024-01-11T14:23:26;5.50;;;3.70;;
10882;SDS011;5494;51.796;10.952;2024-01-11T14:25:54;7.10;;;4.00;;
10882;SDS011;5494;51.796;10.952;2024-01-11T14:28:23;6.60;;;3.60;;
10882;SDS011;5494;51.796;10.952;2024-01-11T14:30:52;9.30;;;4.50;;
10882;SDS011;5494;51.796;10.952;2024-01-11T14:33:20;7.15;;;3.78;;
10882;SDS011;5494;51.796;10.952;2024-01-11T14:35:50;7.50;;;3.88;;
10882;SDS011;5494;51.796;10.952;2024-01-11T14:38:19;5.03;;;3.03;;
10882;SDS011;5494;51.796;10.952;2024-01-11T14:40:47;5.18;;;3.10;;